createdAt,value
2022-08-22T00:02:42.243Z,73.75
2022-08-22T00:02:46.133Z,74.93
2022-08-22T00:02:48.244Z,73.71
2022-08-22T00:02:54.059Z,74.53
2022-08-22T00:03:09.592Z,74.07
2022-08-22T00:06:18.866Z,76.38
2022-08-22T00:09:31.007Z,75.64
2022-08-22T00:12:33.302Z,75.16
2022-08-22T00:15:42.077Z,75.32
2022-08-22T00:18:42.282Z,75.03
2022-08-22T00:21:38.055Z,75.08
2022-08-22T00:24:51.061Z,75.44
2022-08-22T00:27:51.734Z,75.06
2022-08-22T00:30:57.686Z,75.15
2022-08-22T00:33:58.455Z,74.41
2022-08-22T00:37:12.239Z,74.56
2022-08-22T00:40:21.026Z,73.68
2022-08-22T00:43:32.756Z,72.65
2022-08-22T00:46:37.401Z,71.91
2022-08-22T00:49:39.560Z,71.07
2022-08-22T00:52:34.634Z,71.40
2022-08-22T00:55:46.483Z,71.62
2022-08-22T00:58:47.615Z,72.26
2022-08-22T01:01:42.545Z,72.73
2022-08-22T01:04:46.924Z,72.64
2022-08-22T01:07:55.108Z,72.44
2022-08-22T01:10:53.907Z,71.68
2022-08-22T01:14:02.197Z,71.29
2022-08-22T01:17:02.202Z,71.08
2022-08-22T01:20:25.708Z,70.73
2022-08-22T01:23:40.555Z,70.90
2022-08-22T01:26:47.937Z,70.83
2022-08-22T01:29:41.355Z,70.46
2022-08-22T01:33:24.228Z,69.45
2022-08-22T01:36:38.238Z,69.11
2022-08-22T01:39:47.740Z,69.31
2022-08-22T01:42:55.655Z,69.23
2022-08-22T01:45:55.941Z,69.08
2022-08-22T01:48:53.855Z,68.73
2022-08-22T01:51:55.778Z,69.34
2022-08-22T01:54:55.470Z,69.19
2022-08-22T01:58:01.791Z,69.05
2022-08-22T02:01:26.659Z,69.12
2022-08-22T02:04:38.593Z,69.47
2022-08-22T02:07:50.795Z,69.36
2022-08-22T02:11:07.428Z,69.80
2022-08-22T02:14:19.983Z,69.43
2022-08-22T02:17:13.159Z,68.99
2022-08-22T02:20:20.417Z,68.76
2022-08-22T02:23:19.946Z,68.87
2022-08-22T02:26:18.283Z,68.34
2022-08-22T02:29:21.696Z,68.96
2022-08-22T02:32:22.713Z,68.33
2022-08-22T02:35:20.246Z,68.12
2022-08-22T02:38:14.765Z,68.30
2022-08-22T02:41:23.135Z,68.43
2022-08-22T02:44:50.030Z,68.13
2022-08-22T02:48:08.499Z,67.47
2022-08-22T02:51:13.005Z,67.74
2022-08-22T02:54:33.322Z,66.76
2022-08-22T02:57:49.184Z,66.27
2022-08-22T03:00:54.655Z,66.12
2022-08-22T03:03:48.559Z,65.10
2022-08-22T03:06:49.277Z,65.13
2022-08-22T03:09:58.385Z,64.93
2022-08-22T03:12:57.580Z,64.55
2022-08-22T03:15:56.926Z,64.12
2022-08-22T03:19:07.947Z,64.52
2022-08-22T03:22:03.865Z,64.75
2022-08-22T03:25:32.595Z,65.17
2022-08-22T03:28:59.585Z,64.65
2022-08-22T03:32:10.831Z,64.35
2022-08-22T03:35:05.115Z,64.01
2022-08-22T03:38:10.492Z,64.09
2022-08-22T03:41:14.525Z,63.94
2022-08-22T03:44:37.865Z,63.77
2022-08-22T03:48:08.366Z,63.90
2022-08-22T03:51:25.815Z,64.17
2022-08-22T03:54:37.925Z,64.45
2022-08-22T03:57:45.665Z,64.48
2022-08-22T04:00:50.542Z,64.57
2022-08-22T04:04:27.776Z,64.48
2022-08-22T04:07:32.217Z,64.16
2022-08-22T04:10:35.344Z,64.46
2022-08-22T04:13:52.776Z,64.20
2022-08-22T04:17:13.198Z,64.27
2022-08-22T04:20:56.367Z,64.73
2022-08-22T04:23:54.276Z,64.95
2022-08-22T04:27:05.640Z,65.17
2022-08-22T04:30:20.121Z,64.99
2022-08-22T04:33:15.765Z,65.44
2022-08-22T04:36:13.572Z,65.29
2022-08-22T04:39:07.674Z,65.77
2022-08-22T04:42:37.776Z,66.24
2022-08-22T04:45:45.765Z,65.51
2022-08-22T04:48:44.491Z,66.16
2022-08-22T04:51:44.178Z,65.47
2022-08-22T04:54:43.045Z,65.33
2022-08-22T04:57:54.937Z,65.50
2022-08-22T05:00:53.635Z,65.02
2022-08-22T05:03:52.254Z,66.15
2022-08-22T05:06:49.452Z,65.20
2022-08-22T05:09:41.125Z,65.19
2022-08-22T05:12:34.602Z,65.32
2022-08-22T05:15:38.065Z,65.39
2022-08-22T05:18:32.305Z,65.44
2022-08-22T05:21:27.151Z,65.73
2022-08-22T05:24:27.999Z,65.51
2022-08-22T05:27:25.526Z,65.03
2022-08-22T05:30:23.110Z,64.78
2022-08-22T05:33:41.223Z,64.61
2022-08-22T05:36:40.876Z,64.09
2022-08-22T05:39:31.449Z,63.76
2022-08-22T05:42:33.380Z,63.90
2022-08-22T05:45:25.933Z,64.20
2022-08-22T05:48:21.939Z,63.98
2022-08-22T05:51:23.512Z,64.22
2022-08-22T05:54:33.531Z,63.67
2022-08-22T05:57:29.193Z,64.08
2022-08-22T06:00:24.271Z,63.72
2022-08-22T06:03:42.209Z,63.65
2022-08-22T06:06:36.944Z,64.11
2022-08-22T06:09:35.863Z,64.65
2022-08-22T06:12:44.519Z,64.73
2022-08-22T06:16:01.809Z,64.98
2022-08-22T06:18:53.812Z,64.88
2022-08-22T06:21:44.369Z,64.70
2022-08-22T06:24:38.019Z,64.07
2022-08-22T06:27:31.069Z,64.69
2022-08-22T06:30:21.604Z,64.78
2022-08-22T06:33:15.309Z,65.74
2022-08-22T06:36:33.856Z,66.93
2022-08-22T06:39:31.512Z,66.58
2022-08-22T06:42:27.344Z,67.23
2022-08-22T06:45:30.972Z,67.20
2022-08-22T06:48:25.610Z,67.73
2022-08-22T06:51:16.473Z,68.26
2022-08-22T06:54:12.001Z,67.88
2022-08-22T06:57:02.100Z,67.52
2022-08-22T06:59:52.308Z,67.41
2022-08-22T07:02:59.653Z,67.27
2022-08-22T07:05:49.431Z,66.21
2022-08-22T07:08:39.431Z,66.11
2022-08-22T07:11:39.061Z,66.13
2022-08-22T07:14:44.619Z,65.98
2022-08-22T07:17:37.836Z,66.19
2022-08-22T07:20:36.462Z,66.32
2022-08-22T07:23:39.324Z,66.17
2022-08-22T07:26:33.825Z,66.81
2022-08-22T07:30:05.061Z,66.87
2022-08-22T07:33:20.986Z,67.49
2022-08-22T07:36:28.380Z,67.18
2022-08-22T07:39:40.634Z,68.95
2022-08-22T07:42:43.956Z,68.81
2022-08-22T07:45:42.188Z,68.93
2022-08-22T07:48:53.491Z,69.74
2022-08-22T07:51:49.274Z,70.31
2022-08-22T07:55:05.795Z,69.99
2022-08-22T07:58:01.186Z,70.44
2022-08-22T08:00:55.226Z,70.86
2022-08-22T08:03:53.831Z,69.96
2022-08-22T08:06:43.718Z,69.79
2022-08-22T08:09:36.681Z,70.13
2022-08-22T08:12:33.644Z,69.32
2022-08-22T08:15:25.491Z,68.74
2022-08-22T08:18:22.189Z,67.88
2022-08-22T08:21:25.813Z,67.33
2022-08-22T08:24:26.239Z,67.49
2022-08-22T08:27:37.619Z,67.84
2022-08-22T08:30:38.330Z,67.73
2022-08-22T08:33:30.988Z,67.84
2022-08-22T08:36:51.805Z,67.59
2022-08-22T08:39:54.619Z,67.61
2022-08-22T08:43:26.356Z,67.59
2022-08-22T08:46:15.879Z,67.02
2022-08-22T08:49:25.449Z,67.62
2022-08-22T08:52:30.855Z,67.87
2022-08-22T08:55:43.679Z,68.04
2022-08-22T08:58:45.203Z,68.10
2022-08-22T09:01:56.842Z,67.91
2022-08-22T09:05:26.815Z,67.95
2022-08-22T09:08:27.602Z,67.74
2022-08-22T09:11:48.752Z,67.74
2022-08-22T09:14:47.188Z,68.11
2022-08-22T09:18:18.259Z,68.43
2022-08-22T09:21:30.563Z,68.76
2022-08-22T09:24:41.330Z,69.10
2022-08-22T09:27:44.340Z,69.39
2022-08-22T09:30:59.571Z,70.25
2022-08-22T09:34:14.634Z,70.46
2022-08-22T09:37:28.666Z,70.26
2022-08-22T09:40:33.110Z,71.18
2022-08-22T09:43:46.576Z,70.85
2022-08-22T09:46:57.573Z,70.42
2022-08-22T09:50:13.632Z,70.52
2022-08-22T09:53:42.975Z,70.23
2022-08-22T09:56:57.736Z,70.35
2022-08-22T09:59:59.013Z,70.20
2022-08-22T10:03:19.894Z,70.19
2022-08-22T10:06:21.964Z,70.73
2022-08-22T10:09:31.285Z,70.76
2022-08-22T10:12:49.039Z,70.37
2022-08-22T10:15:42.377Z,69.44
2022-08-22T10:18:52.537Z,69.40
2022-08-22T10:22:05.769Z,69.07
2022-08-22T10:25:14.013Z,68.79
2022-08-22T10:28:21.357Z,68.57
2022-08-22T10:31:31.852Z,68.70
2022-08-22T10:34:25.741Z,68.95
2022-08-22T10:37:33.987Z,68.64
2022-08-22T10:40:36.005Z,67.80
2022-08-22T10:43:46.243Z,68.25
2022-08-22T10:46:54.367Z,68.24
2022-08-22T10:50:08.570Z,68.00
2022-08-22T10:53:28.922Z,68.21
2022-08-22T10:56:24.214Z,67.41
2022-08-22T10:59:26.949Z,67.73
2022-08-22T11:02:33.159Z,67.89
2022-08-22T11:05:37.115Z,67.94
2022-08-22T11:08:52.073Z,68.79
2022-08-22T11:12:14.984Z,69.60
2022-08-22T11:15:14.306Z,70.01
2022-08-22T11:18:23.558Z,70.48
2022-08-22T11:21:30.466Z,71.06
2022-08-22T11:24:35.633Z,71.96
2022-08-22T11:28:07.308Z,73.02
2022-08-22T11:31:21.126Z,72.90
2022-08-22T11:34:48.965Z,73.31
2022-08-22T11:37:43.333Z,72.98
2022-08-22T11:40:48.914Z,72.84
2022-08-22T11:43:56.822Z,73.40
2022-08-22T11:46:52.199Z,73.72
2022-08-22T11:50:07.207Z,73.92
2022-08-22T11:53:41.486Z,74.28
2022-08-22T11:56:41.620Z,74.69
2022-08-22T11:59:39.990Z,74.13
2022-08-22T12:02:41.388Z,74.44
2022-08-22T12:05:49.004Z,74.39
2022-08-22T12:08:38.810Z,73.83
2022-08-22T12:11:45.812Z,72.80
2022-08-22T12:15:02.248Z,73.24
2022-08-22T12:18:29.783Z,73.25
2022-08-22T12:21:38.615Z,73.56
2022-08-22T12:24:43.654Z,72.95
2022-08-22T12:28:08.064Z,72.91
2022-08-22T12:31:07.805Z,72.24
2022-08-22T12:34:24.390Z,72.15
2022-08-22T12:37:23.364Z,72.21
2022-08-22T12:40:19.362Z,72.57
2022-08-22T12:43:33.727Z,71.66
2022-08-22T12:46:50.722Z,71.75
2022-08-22T12:49:44.959Z,71.43
2022-08-22T12:53:04.771Z,71.21
2022-08-22T12:56:06.258Z,71.21
2022-08-22T12:59:13.790Z,71.72
2022-08-22T13:02:21.632Z,70.74
2022-08-22T13:05:19.716Z,71.32
2022-08-22T13:08:32.988Z,71.15
2022-08-22T13:11:24.379Z,71.24
2022-08-22T13:14:19.561Z,71.05
2022-08-22T13:17:25.097Z,70.70
2022-08-22T13:20:26.697Z,71.12
2022-08-22T13:23:31.488Z,70.47
2022-08-22T13:26:32.817Z,70.54
2022-08-22T13:29:46.981Z,70.14
2022-08-22T13:32:47.874Z,69.88
2022-08-22T13:35:55.453Z,68.53
2022-08-22T13:39:19.591Z,68.32
2022-08-22T13:42:14.264Z,68.42
2022-08-22T13:45:11.425Z,68.22
2022-08-22T13:48:15.540Z,68.27
2022-08-22T13:51:26.170Z,68.60
2022-08-22T13:54:28.752Z,68.49
2022-08-22T13:57:18.578Z,67.72
2022-08-22T14:00:57.365Z,67.60
2022-08-22T14:04:17.595Z,67.43
2022-08-22T14:07:23.910Z,67.80
2022-08-22T14:10:27.996Z,67.79
2022-08-22T14:13:18.945Z,67.87
2022-08-22T14:16:15.116Z,67.68
2022-08-22T14:19:12.352Z,68.22
2022-08-22T14:22:14.374Z,68.40
2022-08-22T14:25:11.341Z,68.68
2022-08-22T14:28:06.525Z,69.33
2022-08-22T14:31:13.725Z,68.88
2022-08-22T14:34:13.429Z,69.71
2022-08-22T14:37:14.410Z,69.68
2022-08-22T14:40:13.832Z,69.52
2022-08-22T14:43:22.163Z,69.25
2022-08-22T14:46:26.587Z,69.04
2022-08-22T14:49:30.235Z,70.06
2022-08-22T14:52:29.704Z,70.24
2022-08-22T14:55:30.584Z,70.33
2022-08-22T14:58:26.527Z,70.26
2022-08-22T15:01:23.683Z,70.44
2022-08-22T15:04:19.291Z,70.73
2022-08-22T15:07:12.911Z,70.43
2022-08-22T15:10:11.825Z,70.65
2022-08-22T15:13:05.356Z,70.60
2022-08-22T15:16:03.485Z,70.79
2022-08-22T15:18:55.895Z,70.67
2022-08-22T15:21:47.295Z,70.55
2022-08-22T15:25:04.646Z,70.20
2022-08-22T15:28:20.044Z,70.49
2022-08-22T15:31:21.049Z,69.66
2022-08-22T15:34:18.104Z,69.34
2022-08-22T15:37:23.005Z,69.31
2022-08-22T15:40:32.178Z,69.57
2022-08-22T15:43:34.888Z,69.21
2022-08-22T15:46:33.321Z,69.38
2022-08-22T15:49:23.102Z,68.72
2022-08-22T15:52:23.700Z,68.79
2022-08-22T15:55:30.395Z,69.01
2022-08-22T15:58:25.728Z,69.28
2022-08-22T16:01:20.684Z,69.57
2022-08-22T16:04:18.144Z,69.69
2022-08-22T16:07:42.503Z,69.35
2022-08-22T16:10:35.523Z,69.11
2022-08-22T16:13:31.924Z,68.80
2022-08-22T16:16:27.802Z,69.25
2022-08-22T16:19:21.813Z,68.25
2022-08-22T16:22:12.478Z,68.69
2022-08-22T16:25:04.117Z,68.82
2022-08-22T16:27:55.717Z,68.78
2022-08-22T16:30:45.182Z,68.54
2022-08-22T16:33:41.318Z,68.64
2022-08-22T16:37:00.475Z,68.19
2022-08-22T16:40:06.930Z,68.12
2022-08-22T16:43:17.503Z,67.47
2022-08-22T16:46:33.309Z,67.66
2022-08-22T16:49:34.978Z,66.90
2022-08-22T16:52:27.697Z,68.28
2022-08-22T16:55:32.325Z,67.92
2022-08-22T16:58:56.577Z,67.96
2022-08-22T17:01:48.908Z,68.36
2022-08-22T17:05:25.405Z,67.95
2022-08-22T17:08:31.901Z,68.55
2022-08-22T17:11:30.849Z,69.54
2022-08-22T17:14:55.085Z,69.20
2022-08-22T17:17:53.978Z,68.73
2022-08-22T17:21:05.054Z,67.77
2022-08-22T17:24:02.805Z,68.62
2022-08-22T17:27:00.581Z,67.36
2022-08-22T17:30:01.160Z,67.45
2022-08-22T17:33:13.684Z,66.92
2022-08-22T17:36:26.610Z,67.30
2022-08-22T17:39:38.567Z,67.29
2022-08-22T17:42:53.397Z,67.66
2022-08-22T17:45:55.497Z,68.58
2022-08-22T17:48:54.242Z,69.03
2022-08-22T17:52:33.540Z,68.98
2022-08-22T17:56:04.852Z,69.40
2022-08-22T17:59:31.601Z,69.91
2022-08-22T18:02:25.403Z,70.05
2022-08-22T18:06:00.895Z,70.60
2022-08-22T18:12:19.243Z,71.41
2022-08-22T18:15:31.601Z,71.70
2022-08-22T18:18:31.228Z,71.60
2022-08-22T18:21:35.295Z,71.77
2022-08-22T18:24:33.145Z,71.54
2022-08-22T18:27:39.076Z,71.71
2022-08-22T18:30:33.025Z,72.09
2022-08-22T18:33:51.992Z,72.01
2022-08-22T18:37:09.277Z,72.19
2022-08-22T18:40:13.530Z,72.34
2022-08-22T18:43:19.635Z,72.37
2022-08-22T18:46:29.050Z,72.16
2022-08-22T18:49:21.605Z,71.82
2022-08-22T18:52:15.857Z,72.17
2022-08-22T18:55:23.622Z,71.75
2022-08-22T18:58:35.838Z,72.55
2022-08-22T19:01:39.359Z,74.17
2022-08-22T19:04:45.274Z,74.96
2022-08-22T19:07:52.905Z,75.98
2022-08-22T19:10:59.943Z,76.62
2022-08-22T19:14:29.297Z,76.87
2022-08-22T19:17:31.295Z,75.86
2022-08-22T19:20:52.703Z,74.89
2022-08-22T19:23:47.649Z,74.06
2022-08-22T19:26:46.144Z,74.06
2022-08-22T19:29:38.083Z,73.66
2022-08-22T19:32:48.709Z,73.93
2022-08-22T19:35:38.621Z,73.57
2022-08-22T19:38:52.714Z,73.89
2022-08-22T19:41:47.639Z,73.37
2022-08-22T19:44:43.523Z,73.93
2022-08-22T19:47:41.933Z,74.26
2022-08-22T19:50:36.574Z,73.99
2022-08-22T19:53:40.852Z,73.92
2022-08-22T19:57:00.254Z,74.10
2022-08-22T20:00:15.191Z,74.12
2022-08-22T20:03:10.113Z,75.14
2022-08-22T20:06:22.026Z,75.71
2022-08-22T20:09:56.463Z,76.25
2022-08-22T20:13:05.566Z,75.96
2022-08-22T20:16:25.448Z,76.40
2022-08-22T20:19:17.827Z,76.09
2022-08-22T20:22:09.567Z,76.09
2022-08-22T20:25:00.737Z,76.50
2022-08-22T20:27:53.291Z,76.80
2022-08-22T20:30:45.375Z,77.06
2022-08-22T20:33:39.569Z,77.01
2022-08-22T20:36:29.712Z,77.37
2022-08-22T20:39:29.156Z,77.05
2022-08-22T20:42:20.119Z,77.12
2022-08-22T20:45:12.110Z,77.49
2022-08-22T20:48:02.546Z,77.63
2022-08-22T20:50:53.520Z,77.45
2022-08-22T20:53:43.936Z,76.38
2022-08-22T20:56:56.228Z,76.23
2022-08-22T20:59:57.254Z,75.72
2022-08-22T21:03:03.904Z,76.34
2022-08-22T21:05:53.151Z,75.68
2022-08-22T21:08:43.871Z,74.54
2022-08-22T21:11:41.836Z,73.11
2022-08-22T21:14:36.040Z,72.43
2022-08-22T21:17:34.363Z,72.97
2022-08-22T21:20:25.245Z,72.87
2022-08-22T21:23:16.461Z,72.42
2022-08-22T21:26:21.002Z,72.19
2022-08-22T21:29:16.593Z,72.75
2022-08-22T21:32:32.542Z,72.67
2022-08-22T21:35:27.381Z,72.41
2022-08-22T21:38:19.309Z,73.99
2022-08-22T21:41:08.749Z,74.91
2022-08-22T21:43:58.284Z,75.62
2022-08-22T21:46:47.754Z,76.68
2022-08-22T21:50:16.967Z,76.52
2022-08-22T21:53:15.573Z,76.88
2022-08-22T21:56:17.552Z,77.15
2022-08-22T21:59:51.091Z,77.07
2022-08-22T22:02:43.869Z,77.93
2022-08-22T22:05:33.677Z,77.98
2022-08-22T22:08:23.466Z,78.26
2022-08-22T22:11:19.746Z,79.42
2022-08-22T22:14:09.350Z,79.86
2022-08-22T22:16:59.407Z,80.45
2022-08-22T22:19:49.313Z,80.89
2022-08-22T22:22:46.573Z,81.05
2022-08-22T22:25:40.759Z,81.38
2022-08-22T22:28:41.594Z,82.12
2022-08-22T22:31:31.401Z,82.12
2022-08-22T22:34:22.389Z,82.12
2022-08-22T22:37:13.288Z,82.28
2022-08-22T22:40:08.228Z,81.18
2022-08-22T22:42:57.678Z,81.00
2022-08-22T22:45:47.850Z,80.95
2022-08-22T22:48:37.253Z,81.54
2022-08-22T22:51:27.117Z,81.36
2022-08-22T22:54:17.286Z,82.19
2022-08-22T22:57:06.372Z,82.06
2022-08-22T23:00:02.439Z,82.22
2022-08-22T23:02:52.244Z,82.86
2022-08-22T23:05:41.884Z,82.51
2022-08-22T23:08:31.762Z,82.15
2022-08-22T23:11:25.279Z,82.45
2022-08-22T23:14:15.284Z,82.27
2022-08-22T23:17:05.576Z,81.99
2022-08-22T23:19:55.718Z,81.49
2022-08-22T23:22:46.964Z,80.47
2022-08-22T23:25:40.704Z,80.28
2022-08-22T23:28:33.090Z,79.65
2022-08-22T23:31:33.380Z,79.87
2022-08-22T23:34:29.237Z,79.64
2022-08-22T23:37:21.737Z,79.28
2022-08-22T23:40:11.871Z,78.59
2022-08-22T23:43:02.008Z,78.85
2022-08-22T23:45:54.523Z,78.55
2022-08-22T23:48:44.898Z,77.72
2022-08-22T23:51:35.006Z,78.05
2022-08-22T23:54:28.951Z,77.65
2022-08-22T23:57:19.363Z,76.92
